Time;durP1;ratioP1;P1;durP2;ratioP2;P2;SDS_P1;SDS_P2;PMS_P1;PMS_P2;Temp;Humidity;BMP_temperature;BMP_pressure;BME280_temperature;BME280_humidity;BME280_pressure;Samples;Min_cycle;Max_cycle;Signal;HPM_P1;HPM_P2
2023/03/02 00:00:34;;;;;;;42.50;22.03;;;3.00;99.90;;;;;;4211952;28;20315;-62
2023/03/02 00:02:39;;;;;;;53.77;25.57;;;3.00;99.90;;;;;;4212548;28;20358;-64
2023/03/02 00:04:44;;;;;;;55.83;28.57;;;3.00;99.90;;;;;;4211268;28;20340;-62
2023/03/02 00:06:47;;;;;;;54.10;28.27;;;2.90;99.90;;;;;;4213173;28;20257;-63
2023/03/02 00:08:48;;;;;;;57.40;30.43;;;2.90;99.90;;;;;;4212175;28;20681;-62
2023/03/02 00:10:50;;;;;;;59.67;29.77;;;2.90;99.90;;;;;;4212664;28;20302;-62
2023/03/02 00:12:51;;;;;;;58.47;30.50;;;2.80;99.90;;;;;;4212224;28;20257;-62
2023/03/02 00:14:52;;;;;;;54.87;28.00;;;2.80;99.90;;;;;;4212948;28;20337;-62
2023/03/02 00:16:54;;;;;;;63.50;30.07;;;2.80;99.90;;;;;;4210565;28;20277;-63
2023/03/02 00:18:55;;;;;;;57.37;28.87;;;2.80;99.90;;;;;;4211865;28;20293;-62
2023/03/02 00:20:56;;;;;;;50.57;28.03;;;2.80;99.90;;;;;;4211321;28;20791;-62
2023/03/02 00:22:57;;;;;;;54.70;28.50;;;2.80;99.90;;;;;;4212121;28;20694;-61
2023/03/02 00:24:58;;;;;;;59.50;27.87;;;2.80;99.90;;;;;;4212169;28;20628;-62
2023/03/02 00:26:59;;;;;;;58.77;28.00;;;2.80;99.90;;;;;;4210323;28;20277;-62
2023/03/02 00:29:01;;;;;;;56.10;27.90;;;2.80;99.90;;;;;;4211767;28;20752;-62
2023/03/02 00:31:05;;;;;;;56.07;27.33;;;2.90;99.90;;;;;;4211604;28;20700;-61
2023/03/02 00:33:06;;;;;;;45.07;24.97;;;2.90;99.90;;;;;;4213318;28;20298;-62
2023/03/02 00:35:08;;;;;;;54.93;29.03;;;3.00;99.90;;;;;;4210299;28;20278;-61
2023/03/02 00:37:09;;;;;;;54.83;29.63;;;3.00;99.90;;;;;;4212549;28;20268;-63
2023/03/02 00:39:10;;;;;;;58.00;29.60;;;3.00;99.90;;;;;;4211661;28;20342;-62
2023/03/02 00:41:12;;;;;;;64.50;32.17;;;3.00;99.90;;;;;;4212321;28;20814;-62
2023/03/02 00:43:15;;;;;;;58.10;27.60;;;2.90;99.90;;;;;;4210933;28;20280;-61
2023/03/02 00:45:16;;;;;;;56.37;29.40;;;2.90;99.90;;;;;;4212449;28;20260;-62
2023/03/02 00:47:17;;;;;;;54.90;27.53;;;2.90;99.90;;;;;;4211537;28;20668;-62
2023/03/02 00:49:19;;;;;;;50.43;27.40;;;2.90;99.90;;;;;;4212444;28;20257;-62
2023/03/02 00:51:20;;;;;;;54.03;27.83;;;2.90;99.90;;;;;;4211350;28;20306;-61
2023/03/02 00:53:21;;;;;;;51.80;26.30;;;2.90;99.90;;;;;;4212012;28;20314;-61
2023/03/02 00:55:22;;;;;;;52.57;25.17;;;2.90;99.90;;;;;;4211512;28;20264;-61
2023/03/02 00:57:25;;;;;;;51.07;27.30;;;3.00;99.90;;;;;;4210318;28;20268;-66
2023/03/02 00:59:26;;;;;;;49.17;26.97;;;2.90;99.90;;;;;;4211862;28;20296;-61
2023/03/02 01:01:27;;;;;;;47.63;25.00;;;2.90;99.90;;;;;;4210738;28;20272;-66
2023/03/02 01:03:28;;;;;;;47.67;25.43;;;3.00;99.90;;;;;;4212435;28;20748;-64
2023/03/02 01:05:29;;;;;;;56.00;26.33;;;3.00;99.90;;;;;;4211003;28;20265;-66
2023/03/02 01:07:30;;;;;;;54.30;25.80;;;3.00;99.90;;;;;;4211811;28;20781;-67
2023/03/02 01:09:32;;;;;;;48.60;26.67;;;3.00;99.90;;;;;;4211182;28;20276;-65
2023/03/02 01:11:33;;;;;;;47.47;25.50;;;3.10;99.90;;;;;;4211999;28;20822;-62
2023/03/02 01:13:35;;;;;;;43.70;24.40;;;3.10;99.90;;;;;;4211288;28;20264;-67
2023/03/02 01:15:36;;;;;;;56.23;26.87;;;3.10;99.90;;;;;;4212269;28;20260;-67
2023/03/02 01:17:38;;;;;;;48.37;25.53;;;3.00;99.90;;;;;;4211181;28;20322;-68
2023/03/02 01:19:40;;;;;;;50.10;25.13;;;3.00;99.90;;;;;;4210839;28;20314;-67
2023/03/02 01:21:42;;;;;;;51.13;24.97;;;3.00;99.90;;;;;;4209870;28;20426;-67
2023/03/02 01:23:43;;;;;;;46.77;25.23;;;3.00;99.90;;;;;;4211598;28;20663;-68
2023/03/02 01:25:44;;;;;;;47.53;24.77;;;3.00;99.90;;;;;;4211011;28;20269;-66
2023/03/02 01:27:45;;;;;;;54.73;26.07;;;3.00;99.90;;;;;;4211512;28;20659;-68
2023/03/02 01:29:46;;;;;;;49.77;26.20;;;3.00;99.90;;;;;;4211208;28;20318;-66
2023/03/02 01:31:47;;;;;;;70.10;27.73;;;3.00;99.90;;;;;;4211033;28;20321;-68
2023/03/02 01:33:48;;;;;;;49.40;24.77;;;3.00;99.90;;;;;;4209972;28;20690;-66
2023/03/02 01:35:50;;;;;;;50.73;27.27;;;3.00;99.90;;;;;;4210264;28;20337;-65
2023/03/02 01:37:51;;;;;;;48.33;26.67;;;3.00;99.90;;;;;;4211799;28;20662;-63
2023/03/02 01:39:52;;;;;;;47.53;26.47;;;2.90;99.90;;;;;;4210176;28;20285;-62
2023/03/02 01:41:53;;;;;;;53.77;27.87;;;2.90;99.90;;;;;;4211497;28;20671;-62
2023/03/02 01:43:54;;;;;;;53.03;28.70;;;2.90;99.90;;;;;;4210856;28;20265;-65
2023/03/02 01:45:58;;;;;;;57.27;30.77;;;2.80;99.90;;;;;;4211299;28;20272;-62
2023/03/02 01:47:59;;;;;;;62.27;31.30;;;2.90;99.90;;;;;;4209563;28;20318;-62
2023/03/02 01:50:12;;;;;;;57.33;30.20;;;2.80;99.90;;;;;;4211911;28;20648;-62
2023/03/02 01:52:14;;;;;;;56.10;30.20;;;2.80;99.90;;;;;;4210162;28;20314;-62
2023/03/02 01:54:21;;;;;;;60.47;28.83;;;2.80;99.90;;;;;;4211688;28;20273;-62
2023/03/02 01:56:28;;;;;;;57.73;29.50;;;2.80;99.90;;;;;;4210414;28;20266;-63
2023/03/02 01:58:33;;;;;;;55.80;28.77;;;2.80;99.90;;;;;;4211626;28;20269;-67
2023/03/02 02:00:37;;;;;;;50.70;27.23;;;2.80;99.90;;;;;;4210535;28;20314;-62
2023/03/02 02:02:40;;;;;;;50.53;25.93;;;2.70;99.90;;;;;;4211172;28;20655;-62
2023/03/02 02:04:43;;;;;;;49.47;27.10;;;2.70;99.90;;;;;;4210475;28;20265;-62
2023/03/02 02:06:54;;;;;;;54.83;27.87;;;2.70;99.90;;;;;;4209954;28;20703;-62
2023/03/02 02:08:57;;;;;;;54.08;27.67;;;2.70;99.90;;;;;;4210724;28;20264;-64
2023/03/02 02:10:58;;;;;;;49.53;26.73;;;2.70;99.90;;;;;;4209165;28;20120;-64
2023/03/02 02:12:59;;;;;;;56.43;27.23;;;2.60;99.90;;;;;;4210594;28;20269;-62
2023/03/02 02:15:01;;;;;;;46.20;24.63;;;2.50;99.90;;;;;;4210441;28;20323;-62
2023/03/02 02:17:02;;;;;;;49.17;24.23;;;2.50;99.90;;;;;;4211194;28;20257;-63
2023/03/02 02:19:29;;;;;;;59.60;24.77;;;2.40;99.90;;;;;;4210074;28;20296;-63
2023/03/02 02:21:30;;;;;;;43.37;22.27;;;2.40;99.90;;;;;;4210090;28;20329;-62
2023/03/02 02:24:02;;;;;;;47.00;24.90;;;2.30;99.90;;;;;;4209193;28;20272;-62
2023/03/02 02:26:11;;;;;;;47.50;23.57;;;2.20;99.90;;;;;;4210170;28;20698;-62
2023/03/02 02:28:26;;;;;;;52.73;25.00;;;2.20;99.90;;;;;;4210652;28;20314;-62
2023/03/02 02:30:28;;;;;;;46.80;24.07;;;2.10;99.90;;;;;;4210623;28;20237;-62
2023/03/02 02:32:33;;;;;;;49.83;24.87;;;2.10;99.90;;;;;;4210251;28;20326;-62
2023/03/02 02:34:44;;;;;;;44.57;23.07;;;2.10;99.90;;;;;;4210335;28;20276;-62
2023/03/02 02:36:48;;;;;;;45.87;23.10;;;2.10;99.90;;;;;;4210686;28;20272;-62
2023/03/02 02:38:52;;;;;;;44.90;24.50;;;2.10;99.90;;;;;;4211050;28;20322;-62
2023/03/02 02:41:01;;;;;;;43.93;22.73;;;2.10;99.90;;;;;;4209988;28;20310;-64
2023/03/02 02:43:02;;;;;;;47.63;23.20;;;2.10;99.90;;;;;;4211250;28;20663;-65
2023/03/02 02:45:16;;;;;;;44.63;22.87;;;2.10;99.90;;;;;;4210453;28;20326;-65
2023/03/02 02:47:20;;;;;;;42.70;21.33;;;2.00;99.90;;;;;;4210777;28;20346;-61
2023/03/02 02:49:29;;;;;;;39.73;21.60;;;2.00;99.90;;;;;;4209799;28;20285;-62
2023/03/02 02:51:32;;;;;;;39.63;22.00;;;2.00;99.90;;;;;;4211242;28;20741;-62
2023/03/02 02:53:36;;;;;;;44.37;21.67;;;1.90;99.90;;;;;;4210369;28;20273;-66
2023/03/02 02:55:40;;;;;;;41.07;22.57;;;1.90;99.90;;;;;;4211238;28;20325;-61
2023/03/02 02:57:41;;;;;;;40.73;22.30;;;1.90;99.90;;;;;;4209744;28;20333;-60
2023/03/02 02:59:49;;;;;;;44.67;21.90;;;1.90;99.90;;;;;;4214027;28;20699;-62
2023/03/02 03:01:51;;;;;;;36.57;20.87;;;2.00;99.90;;;;;;4212853;28;20656;-62
2023/03/02 03:03:56;;;;;;;40.47;20.63;;;1.90;99.90;;;;;;4213919;28;20390;-66
2023/03/02 03:05:59;;;;;;;41.87;22.67;;;2.00;99.90;;;;;;4212866;28;20269;-65
2023/03/02 03:08:08;;;;;;;41.87;21.13;;;1.90;99.90;;;;;;4214331;28;20322;-65
2023/03/02 03:10:12;;;;;;;36.80;20.27;;;2.00;99.90;;;;;;4213081;28;20269;-64
2023/03/02 03:12:18;;;;;;;42.57;21.20;;;2.00;99.90;;;;;;4213945;28;20276;-64
2023/03/02 03:14:25;;;;;;;38.87;20.83;;;2.00;99.90;;;;;;4212697;28;20744;-63
2023/03/02 03:16:28;;;;;;;40.37;19.67;;;2.00;99.90;;;;;;4212440;28;20281;-64
2023/03/02 03:18:32;;;;;;;43.83;21.87;;;2.10;99.90;;;;;;4212827;28;20268;-61
2023/03/02 03:20:33;;;;;;;40.13;21.80;;;2.00;99.90;;;;;;4213426;28;20292;-62
2023/03/02 03:22:37;;;;;;;36.83;19.03;;;2.00;99.90;;;;;;4213214;28;20306;-62
2023/03/02 03:24:40;;;;;;;39.30;19.20;;;2.10;99.90;;;;;;4213234;28;20686;-61
2023/03/02 03:26:41;;;;;;;39.30;20.30;;;2.10;99.90;;;;;;4213113;28;20256;-65
2023/03/02 03:28:42;;;;;;;35.73;18.70;;;2.20;99.90;;;;;;4212684;28;20264;-66
2023/03/02 03:30:44;;;;;;;41.63;19.37;;;2.20;99.90;;;;;;4213216;28;20770;-61
2023/03/02 03:32:45;;;;;;;39.10;20.37;;;2.20;99.90;;;;;;4212289;28;20329;-61
2023/03/02 03:34:46;;;;;;;32.83;19.30;;;2.20;99.90;;;;;;4213355;28;20261;-61
2023/03/02 03:36:47;;;;;;;32.60;19.77;;;2.20;99.90;;;;;;4211175;28;20341;-64
2023/03/02 03:38:48;;;;;;;33.70;19.10;;;2.20;99.90;;;;;;4213545;28;20326;-60
2023/03/02 03:40:50;;;;;;;37.33;19.80;;;2.20;99.90;;;;;;4212155;28;20343;-60
2023/03/02 03:42:51;;;;;;;36.93;20.63;;;2.30;99.90;;;;;;4213253;28;20284;-65
2023/03/02 03:44:52;;;;;;;45.33;22.27;;;2.30;99.90;;;;;;4212174;28;20326;-62
2023/03/02 03:46:53;;;;;;;41.30;20.97;;;2.30;99.90;;;;;;4213434;28;20273;-65
2023/03/02 03:48:55;;;;;;;45.57;22.40;;;2.40;99.90;;;;;;4212341;28;20269;-63
2023/03/02 03:51:00;;;;;;;39.73;20.60;;;2.40;99.90;;;;;;4213063;28;20342;-62
2023/03/02 03:53:01;;;;;;;39.60;20.33;;;2.40;99.90;;;;;;4212534;28;20762;-61
2023/03/02 03:55:03;;;;;;;41.87;20.93;;;2.40;99.90;;;;;;4213067;28;20325;-66
2023/03/02 03:57:05;;;;;;;38.03;21.77;;;2.40;99.90;;;;;;4212674;28;20318;-62
2023/03/02 03:59:09;;;;;;;40.20;22.13;;;2.40;99.90;;;;;;4212307;28;20310;-62
2023/03/02 04:01:10;;;;;;;37.00;19.57;;;2.50;99.90;;;;;;4212704;28;20736;-62
2023/03/02 04:03:12;;;;;;;38.97;22.30;;;2.50;99.90;;;;;;4212105;28;20295;-63
2023/03/02 04:05:13;;;;;;;40.93;21.63;;;2.50;99.90;;;;;;4212898;28;20663;-63
2023/03/02 04:07:15;;;;;;;41.23;22.03;;;2.50;99.90;;;;;;4211980;28;20325;-62
2023/03/02 04:09:17;;;;;;;42.87;22.30;;;2.50;99.90;;;;;;4212892;28;20624;-63
2023/03/02 04:11:18;;;;;;;44.83;23.23;;;2.50;99.90;;;;;;4210996;28;20321;-64
2023/03/02 04:13:19;;;;;;;42.00;22.23;;;2.40;99.90;;;;;;4212989;28;20257;-62
2023/03/02 04:15:20;;;;;;;51.90;23.70;;;2.40;99.90;;;;;;4211699;28;20253;-63
2023/03/02 04:17:22;;;;;;;43.50;22.77;;;2.40;99.90;;;;;;4213066;28;20341;-64
2023/03/02 04:19:23;;;;;;;53.17;23.17;;;2.40;99.90;;;;;;4211697;28;20292;-61
2023/03/02 04:21:25;;;;;;;44.77;22.47;;;2.30;99.90;;;;;;4212771;28;20747;-62
2023/03/02 04:23:26;;;;;;;45.20;22.90;;;2.30;99.90;;;;;;4211719;28;20229;-65
2023/03/02 04:25:29;;;;;;;40.43;22.63;;;2.30;99.90;;;;;;4212761;28;20253;-67
2023/03/02 04:27:30;;;;;;;45.47;24.00;;;2.20;99.90;;;;;;4211792;28;20299;-64
2023/03/02 04:29:32;;;;;;;42.03;23.03;;;2.20;99.90;;;;;;4212042;28;20272;-65
2023/03/02 04:31:34;;;;;;;42.63;22.17;;;2.20;99.90;;;;;;4212336;28;20237;-62
2023/03/02 04:33:36;;;;;;;52.40;23.30;;;2.10;99.90;;;;;;4211374;28;20269;-62
2023/03/02 04:35:37;;;;;;;45.47;23.27;;;2.10;99.90;;;;;;4212280;28;20613;-61
2023/03/02 04:37:39;;;;;;;43.37;22.63;;;2.10;99.90;;;;;;4211259;28;20298;-65
2023/03/02 04:39:41;;;;;;;42.70;22.23;;;2.20;99.90;;;;;;4212320;28;20846;-62
2023/03/02 04:41:42;;;;;;;36.20;19.93;;;2.20;99.90;;;;;;4211082;28;20277;-63
2023/03/02 04:43:44;;;;;;;37.03;19.47;;;2.10;99.90;;;;;;4212498;28;20334;-63
2023/03/02 04:45:45;;;;;;;33.97;18.43;;;2.10;99.90;;;;;;4210033;28;20318;-64
2023/03/02 04:47:46;;;;;;;25.67;15.77;;;2.10;99.90;;;;;;4212570;28;20268;-62
2023/03/02 04:49:49;;;;;;;30.53;16.50;;;2.10;99.90;;;;;;4210904;28;20261;-62
2023/03/02 04:51:50;;;;;;;29.10;15.10;;;2.10;99.90;;;;;;4212206;28;20318;-64
2023/03/02 04:53:57;;;;;;;31.97;15.47;;;2.10;99.90;;;;;;4211381;28;20268;-64
2023/03/02 04:55:59;;;;;;;28.77;14.80;;;2.10;99.90;;;;;;4212088;28;20325;-62
2023/03/02 04:58:00;;;;;;;28.17;14.43;;;2.10;99.90;;;;;;4210875;28;20306;-63
2023/03/02 05:00:03;;;;;;;29.30;14.77;;;2.10;99.90;;;;;;4211697;28;20338;-63
2023/03/02 05:02:05;;;;;;;23.30;13.60;;;2.10;99.90;;;;;;4211474;28;20268;-65
2023/03/02 05:04:06;;;;;;;30.67;14.20;;;2.10;99.90;;;;;;4211082;28;20314;-66
2023/03/02 05:06:08;;;;;;;26.03;14.60;;;2.10;99.90;;;;;;4211449;28;20310;-63
2023/03/02 05:08:09;;;;;;;27.43;14.13;;;2.10;99.90;;;;;;4210128;28;20272;-63
2023/03/02 05:10:12;;;;;;;27.53;13.97;;;2.20;99.90;;;;;;4210802;28;20598;-62
2023/03/02 05:12:13;;;;;;;33.67;15.73;;;2.20;99.90;;;;;;4208649;28;20265;-61
2023/03/02 05:14:14;;;;;;;34.00;18.27;;;2.10;99.90;;;;;;4211034;28;20333;-63
2023/03/02 05:16:15;;;;;;;30.10;16.77;;;2.10;99.90;;;;;;4210194;28;20310;-67
2023/03/02 05:18:17;;;;;;;30.27;14.47;;;2.10;99.90;;;;;;4210990;28;20272;-61
2023/03/02 05:20:19;;;;;;;25.13;12.90;;;2.10;99.90;;;;;;4209106;28;20288;-62
2023/03/02 05:22:20;;;;;;;27.63;13.50;;;2.10;99.90;;;;;;4207537;28;20939;-62
2023/03/02 05:24:22;;;;;;;37.20;18.23;;;2.10;99.90;;;;;;4204847;28;20305;-63
2023/03/02 05:26:23;;;;;;;27.03;15.50;;;2.10;99.90;;;;;;4211020;28;20284;-62
2023/03/02 05:28:25;;;;;;;28.67;14.17;;;2.10;99.90;;;;;;4209975;28;20678;-65
2023/03/02 05:30:27;;;;;;;29.83;13.03;;;2.10;99.90;;;;;;4211500;28;20261;-64
2023/03/02 05:32:28;;;;;;;26.17;13.37;;;2.10;99.90;;;;;;4209814;28;20273;-65
2023/03/02 05:34:29;;;;;;;22.57;13.10;;;2.20;99.90;;;;;;4210977;28;20292;-67
2023/03/02 05:36:31;;;;;;;24.87;13.60;;;2.10;99.90;;;;;;4210263;28;20801;-63
2023/03/02 05:38:32;;;;;;;22.03;10.97;;;2.10;99.90;;;;;;4209180;28;20268;-61
2023/03/02 05:40:33;;;;;;;25.17;11.63;;;2.10;99.90;;;;;;4209484;28;20349;-65
2023/03/02 05:42:35;;;;;;;24.70;12.23;;;2.10;99.90;;;;;;4210459;28;20299;-62
2023/03/02 05:44:36;;;;;;;26.67;11.67;;;2.10;99.90;;;;;;4211412;28;20292;-62
2023/03/02 05:46:38;;;;;;;26.33;13.03;;;2.10;99.90;;;;;;4209775;28;20676;-65
2023/03/02 05:48:41;;;;;;;22.83;12.83;;;2.10;99.90;;;;;;4210940;28;20318;-63
2023/03/02 05:50:42;;;;;;;31.00;14.93;;;2.10;99.90;;;;;;4210311;28;20281;-65
2023/03/02 05:52:44;;;;;;;30.10;14.40;;;2.10;99.90;;;;;;4211038;28;20256;-63
2023/03/02 05:54:45;;;;;;;33.23;16.00;;;2.10;99.90;;;;;;4210177;28;20326;-63
2023/03/02 05:56:46;;;;;;;29.50;13.27;;;2.10;99.90;;;;;;4210971;28;20257;-63
2023/03/02 05:58:47;;;;;;;33.53;14.10;;;2.10;99.90;;;;;;4215019;28;20690;-66
2023/03/02 06:00:49;;;;;;;37.17;18.40;;;2.10;99.90;;;;;;4227716;28;20295;-63
2023/03/02 06:02:50;;;;;;;37.77;19.67;;;2.10;99.90;;;;;;4225433;28;20264;-62
2023/03/02 06:04:51;;;;;;;32.83;17.97;;;2.10;99.90;;;;;;4227418;28;20268;-65
2023/03/02 06:06:52;;;;;;;38.67;18.10;;;2.10;99.90;;;;;;4227138;28;20284;-62
2023/03/02 06:08:53;;;;;;;31.83;17.40;;;2.10;99.90;;;;;;4227063;28;20281;-62
2023/03/02 06:10:56;;;;;;;35.20;18.00;;;2.20;99.90;;;;;;4227465;28;20260;-63
2023/03/02 06:12:57;;;;;;;37.60;19.17;;;2.20;99.90;;;;;;4226997;28;20268;-67
2023/03/02 06:14:58;;;;;;;48.57;17.90;;;2.20;99.90;;;;;;4227675;28;20280;-62
2023/03/02 06:16:59;;;;;;;28.57;14.70;;;2.20;99.90;;;;;;4226724;28;20349;-63
2023/03/02 06:19:01;;;;;;;34.00;16.43;;;2.20;99.90;;;;;;4227677;28;20272;-63
2023/03/02 06:21:03;;;;;;;39.43;19.17;;;2.20;99.90;;;;;;4226593;28;20284;-62
2023/03/02 06:23:04;;;;;;;70.20;30.63;;;2.30;99.90;;;;;;4209168;28;20313;-62
2023/03/02 06:25:07;;;;;;;49.83;23.90;;;2.30;99.90;;;;;;4210411;28;20285;-61
2023/03/02 06:27:09;;;;;;;61.67;28.60;;;2.30;99.90;;;;;;4209309;28;20744;-63
2023/03/02 06:29:10;;;;;;;52.03;22.33;;;2.40;99.90;;;;;;4202266;28;20337;-62
2023/03/02 06:31:11;;;;;;;58.80;27.27;;;2.40;99.90;;;;;;4206274;28;20276;-64
2023/03/02 06:33:12;;;;;;;60.30;28.00;;;2.30;99.90;;;;;;4205460;28;20334;-61
2023/03/02 06:35:13;;;;;;;50.93;25.50;;;2.40;99.90;;;;;;4209001;28;20260;-63
2023/03/02 06:37:14;;;;;;;46.60;23.13;;;2.40;99.90;;;;;;4207907;28;20318;-68
2023/03/02 06:39:16;;;;;;;49.73;24.33;;;2.40;99.90;;;;;;4206416;28;20284;-61
2023/03/02 06:41:17;;;;;;;36.57;19.70;;;2.50;99.90;;;;;;4208958;28;20405;-62
2023/03/02 06:43:18;;;;;;;36.10;17.40;;;2.50;99.90;;;;;;4207364;28;20277;-62
2023/03/02 06:45:19;;;;;;;32.77;16.00;;;2.60;99.90;;;;;;4208048;28;20261;-63
2023/03/02 06:47:21;;;;;;;32.63;15.73;;;2.70;99.90;;;;;;4207601;28;20318;-61
2023/03/02 06:49:23;;;;;;;38.30;18.43;;;2.70;99.90;;;;;;4214022;28;20253;-62
2023/03/02 06:51:26;;;;;;;31.27;16.37;;;2.70;99.90;;;;;;4213081;28;20270;-63
2023/03/02 06:53:27;;;;;;;36.60;17.87;;;2.70;99.90;;;;;;4214499;28;20261;-60
2023/03/02 06:55:28;;;;;;;38.90;20.47;;;2.70;99.90;;;;;;4213254;28;20257;-66
2023/03/02 06:57:32;;;;;;;39.70;21.70;;;2.80;99.90;;;;;;4213970;28;20256;-62
2023/03/02 06:59:34;;;;;;;42.97;21.17;;;2.90;99.90;;;;;;4211758;28;20272;-64
2023/03/02 07:01:35;;;;;;;55.70;24.10;;;3.00;99.90;;;;;;4212663;28;20300;-60
2023/03/02 07:03:36;;;;;;;57.63;27.80;;;3.10;99.90;;;;;;4212025;28;20261;-58
2023/03/02 07:05:37;;;;;;;32.30;18.00;;;3.30;99.90;;;;;;4213437;28;20732;-62
2023/03/02 07:07:39;;;;;;;39.93;19.70;;;3.30;99.90;;;;;;4212518;28;20257;-62
2023/03/02 07:09:40;;;;;;;37.47;18.17;;;3.40;99.90;;;;;;4212471;28;20333;-62
2023/03/02 07:11:41;;;;;;;25.40;13.30;;;3.40;99.90;;;;;;4212306;28;20237;-63
2023/03/02 07:13:42;;;;;;;27.00;12.77;;;3.50;99.90;;;;;;4212409;28;20636;-62
2023/03/02 07:15:43;;;;;;;33.43;12.93;;;3.60;99.90;;;;;;4212293;28;20280;-65
2023/03/02 07:17:45;;;;;;;26.77;13.73;;;3.70;99.90;;;;;;4211837;28;20397;-63
2023/03/02 07:19:46;;;;;;;38.37;13.80;;;3.80;99.90;;;;;;4212204;28;20273;-62
2023/03/02 07:21:47;;;;;;;25.40;13.03;;;4.00;99.90;;;;;;4210150;28;20321;-61
2023/03/02 07:23:49;;;;;;;25.73;13.27;;;4.10;99.90;;;;;;4211742;28;20323;-67
2023/03/02 07:25:50;;;;;;;24.07;13.13;;;4.20;99.90;;;;;;4211224;28;20847;-63
2023/03/02 07:27:51;;;;;;;29.60;14.40;;;4.20;99.90;;;;;;4212091;28;20260;-63
2023/03/02 07:29:52;;;;;;;30.17;14.33;;;4.30;99.90;;;;;;4210856;28;20322;-63
2023/03/02 07:31:56;;;;;;;24.77;13.57;;;4.40;99.90;;;;;;4211794;28;20341;-64
2023/03/02 07:33:57;;;;;;;26.50;13.80;;;4.40;99.90;;;;;;4210174;28;20326;-63
2023/03/02 07:35:58;;;;;;;29.07;14.53;;;4.50;99.90;;;;;;4211997;28;20663;-66
2023/03/02 07:37:59;;;;;;;32.13;15.87;;;4.60;99.90;;;;;;4211247;28;20257;-64
2023/03/02 07:40:00;;;;;;;39.83;20.43;;;4.60;99.90;;;;;;4211235;28;20348;-64
2023/03/02 07:42:03;;;;;;;46.17;20.53;;;4.60;99.90;;;;;;4210988;28;20748;-67
2023/03/02 07:44:04;;;;;;;46.40;22.37;;;4.70;99.90;;;;;;4211693;28;20272;-66
2023/03/02 07:46:05;;;;;;;50.67;24.63;;;4.70;99.90;;;;;;4211952;28;20627;-69
2023/03/02 07:48:06;;;;;;;46.43;23.53;;;4.80;99.90;;;;;;4211653;28;20269;-70
2023/03/02 07:50:08;;;;;;;46.53;20.67;;;4.80;99.90;;;;;;4212713;28;20335;-64
2023/03/02 07:52:09;;;;;;;44.17;22.97;;;4.70;99.90;;;;;;4211262;28;20024;-66
2023/03/02 07:54:11;;;;;;;50.20;21.93;;;4.60;99.90;;;;;;4212586;28;20073;-67
2023/03/02 07:56:12;;;;;;;44.33;21.40;;;4.60;99.90;;;;;;4211396;28;20036;-67
2023/03/02 07:58:13;;;;;;;49.53;23.90;;;4.50;99.90;;;;;;4212350;28;20290;-70
2023/03/02 08:00:15;;;;;;;50.73;22.17;;;4.50;99.90;;;;;;4210589;28;20044;-65
2023/03/02 08:02:19;;;;;;;50.77;22.20;;;4.70;99.90;;;;;;4211244;28;20039;-68
2023/03/02 08:04:20;;;;;;;48.30;19.73;;;4.70;99.90;;;;;;4211008;28;20020;-64
2023/03/02 08:06:21;;;;;;;39.60;20.73;;;4.80;99.90;;;;;;4211871;28;20334;-67
2023/03/02 08:08:22;;;;;;;52.67;21.77;;;4.80;99.90;;;;;;4210973;28;20260;-73
2023/03/02 08:10:23;;;;;;;39.17;20.47;;;4.90;99.90;;;;;;4210246;28;20330;-64
2023/03/02 08:12:24;;;;;;;40.07;20.50;;;4.90;99.90;;;;;;4211700;28;20040;-65
2023/03/02 08:14:25;;;;;;;36.63;17.97;;;5.00;99.90;;;;;;4212090;28;20268;-65
2023/03/02 08:16:27;;;;;;;40.43;19.67;;;4.90;99.90;;;;;;4212122;28;20098;-65
2023/03/02 08:18:29;;;;;;;37.93;19.33;;;4.90;99.90;;;;;;4211341;28;20032;-64
2023/03/02 08:20:30;;;;;;;37.67;18.07;;;4.90;99.90;;;;;;4212215;28;20114;-63
2023/03/02 08:22:31;;;;;;;33.17;18.37;;;5.00;99.90;;;;;;4211527;28;20272;-65
2023/03/02 08:24:32;;;;;;;33.47;18.10;;;5.10;99.90;;;;;;4212390;28;20292;-64
2023/03/02 08:26:33;;;;;;;42.13;19.50;;;5.10;99.90;;;;;;4211309;28;20028;-64
2023/03/02 08:28:35;;;;;;;40.90;20.47;;;5.20;99.90;;;;;;4212438;28;20036;-69
2023/03/02 08:30:36;;;;;;;39.90;20.10;;;5.20;99.90;;;;;;4209689;28;20044;-70
2023/03/02 08:32:38;;;;;;;47.13;21.67;;;5.40;99.90;;;;;;4211656;28;20028;-69
2023/03/02 08:34:39;;;;;;;40.40;20.07;;;5.40;99.90;;;;;;4210676;28;20391;-62
2023/03/02 08:36:42;;;;;;;41.87;19.40;;;5.50;99.90;;;;;;4211033;28;20085;-69
2023/03/02 08:38:44;;;;;;;45.33;20.40;;;5.50;99.90;;;;;;4210339;28;20176;-67
2023/03/02 08:40:45;;;;;;;42.90;23.23;;;5.70;99.90;;;;;;4211639;28;20137;-67
2023/03/02 08:42:48;;;;;;;46.67;22.17;;;5.80;99.90;;;;;;4210834;28;20028;-66
2023/03/02 08:44:49;;;;;;;47.80;20.80;;;5.80;99.90;;;;;;4210587;28;20039;-64
2023/03/02 08:46:51;;;;;;;39.83;20.03;;;5.90;99.90;;;;;;4212145;28;20093;-72
2023/03/02 08:48:52;;;;;;;52.50;25.17;;;6.00;99.90;;;;;;4210968;28;20067;-64
2023/03/02 08:51:00;;;;;;;39.60;19.93;;;6.10;99.90;;;;;;4211279;28;20073;-67
2023/03/02 08:53:02;;;;;;;38.40;17.87;;;6.20;99.90;;;;;;4210479;28;20023;-61
2023/03/02 08:55:03;;;;;;;41.33;19.13;;;6.20;99.90;;;;;;4211575;28;20024;-66
2023/03/02 08:57:09;;;;;;;33.33;17.77;;;6.30;99.90;;;;;;4210409;28;20028;-66
2023/03/02 08:59:12;;;;;;;41.03;19.33;;;6.40;99.90;;;;;;4214590;28;20020;-66
2023/03/02 09:01:19;;;;;;;64.47;28.47;;;6.60;99.90;;;;;;4215902;28;20044;-63
2023/03/02 09:03:20;;;;;;;42.37;20.17;;;6.80;99.90;;;;;;4211057;28;20031;-65
2023/03/02 09:05:22;;;;;;;38.20;19.67;;;7.00;99.90;;;;;;4210644;28;20062;-62
2023/03/02 09:07:23;;;;;;;37.17;20.80;;;7.00;99.90;;;;;;4210664;28;20476;-66
2023/03/02 09:09:24;;;;;;;34.73;18.60;;;7.00;99.90;;;;;;4209327;28;20028;-63
2023/03/02 09:11:25;;;;;;;39.30;19.43;;;7.20;99.90;;;;;;4210796;28;20085;-62
2023/03/02 09:13:26;;;;;;;36.63;19.13;;;7.30;99.90;;;;;;4209685;28;20491;-63
2023/03/02 09:15:28;;;;;;;37.97;17.97;;;7.50;99.90;;;;;;4208575;28;20044;-64
2023/03/02 09:17:29;;;;;;;38.73;19.53;;;7.70;99.90;;;;;;4209790;28;20097;-65
2023/03/02 09:19:30;;;;;;;33.87;18.73;;;8.00;99.90;;;;;;4196184;28;20036;-64
2023/03/02 09:21:31;;;;;;;40.50;17.77;;;8.10;99.90;;;;;;4194009;28;20040;-65
2023/03/02 09:23:34;;;;;;;36.57;18.53;;;8.20;99.90;;;;;;4193718;28;20028;-65
2023/03/02 09:25:35;;;;;;;27.03;14.73;;;8.20;99.90;;;;;;4194448;28;20449;-69
2023/03/02 09:27:36;;;;;;;40.80;14.53;;;8.20;99.90;;;;;;4194154;28;20423;-69
2023/03/02 09:29:37;;;;;;;23.50;14.03;;;8.20;99.90;;;;;;4192321;28;20451;-61
2023/03/02 09:31:39;;;;;;;16.93;9.00;;;8.20;99.90;;;;;;4205108;28;20036;-65
2023/03/02 09:33:40;;;;;;;20.40;10.53;;;8.20;99.90;;;;;;4211278;28;20433;-63
2023/03/02 09:35:41;;;;;;;14.90;8.40;;;8.30;99.90;;;;;;4210022;28;20081;-61
2023/03/02 09:37:42;;;;;;;12.73;5.60;;;8.40;99.90;;;;;;4211148;28;20085;-63
2023/03/02 09:39:44;;;;;;;10.40;5.63;;;8.50;99.90;;;;;;4209573;28;20100;-62
2023/03/02 09:42:22;;;;;;;8.87;5.77;;;8.50;99.90;;;;;;4211019;28;20434;-62
2023/03/02 09:44:39;;;;;;;8.73;5.03;;;8.60;99.90;;;;;;4183106;28;20105;-62
2023/03/02 09:46:50;;;;;;;9.90;4.37;;;8.60;99.90;;;;;;4211322;28;20040;-64
2023/03/02 09:49:21;;;;;;;14.43;4.87;;;8.90;99.90;;;;;;4210048;28;20082;-64
2023/03/02 09:51:35;;;;;;;7.33;4.30;;;9.10;99.90;;;;;;4193968;28;20036;-61
2023/03/02 09:53:45;;;;;;;11.17;4.90;;;9.20;99.90;;;;;;4193462;28;20469;-63
2023/03/02 09:55:53;;;;;;;7.50;4.32;;;9.20;99.90;;;;;;4193976;28;20024;-63
2023/03/02 09:57:54;;;;;;;11.37;4.50;;;9.40;99.90;;;;;;4193146;28;20028;-63
2023/03/02 10:00:03;;;;;;;8.03;4.27;;;9.50;99.90;;;;;;4193647;28;20037;-65
2023/03/02 10:02:22;;;;;;;10.53;4.47;;;9.40;99.90;;;;;;4199354;28;20096;-61
2023/03/02 10:04:45;;;;;;;7.37;4.00;;;9.30;99.90;;;;;;4210385;28;20082;-63
2023/03/02 10:06:48;;;;;;;8.73;4.03;;;9.30;99.90;;;;;;4209111;28;20483;-63
2023/03/02 10:08:49;;;;;;;10.07;5.03;;;9.30;99.90;;;;;;4210880;28;20044;-63
2023/03/02 10:11:27;;;;;;;9.87;5.20;;;9.30;99.90;;;;;;4212913;28;20074;-64
2023/03/02 10:13:41;;;;;;;8.70;4.07;;;9.40;99.90;;;;;;4213189;28;20078;-65
2023/03/02 10:15:58;;;;;;;8.03;4.20;;;9.50;99.90;;;;;;4214006;28;20073;-61
2023/03/02 10:18:08;;;;;;;9.27;4.27;;;9.50;99.90;;;;;;4212853;28;20028;-63
2023/03/02 10:20:36;;;;;;;7.78;4.10;;;9.50;99.90;;;;;;4213165;28;20438;-62
2023/03/02 10:22:44;;;;;;;9.77;4.53;;;9.40;99.90;;;;;;4212771;28;20069;-65
2023/03/02 10:24:48;;;;;;;15.30;4.73;;;9.30;99.90;;;;;;4214144;28;20102;-61
2023/03/02 10:27:12;;;;;;;8.60;4.27;;;9.30;99.90;;;;;;4213755;28;20057;-61
2023/03/02 10:29:22;;;;;;;11.40;4.23;;;9.30;99.90;;;;;;4214208;28;20040;-63
2023/03/02 10:31:31;;;;;;;10.38;4.20;;;9.30;99.90;;;;;;4213103;28;20081;-62
2023/03/02 10:33:35;;;;;;;10.97;4.73;;;9.20;99.90;;;;;;4214250;28;20028;-64